sensor_id;sensor_type;location;lat;lon;timestamp;temperature;humidity
21495;DHT22;10909;53.590;10.054;2022-12-18T00:03:41;-0.50;70.40
21495;DHT22;10909;53.590;10.054;2022-12-18T00:06:07;-0.50;70.30
21495;DHT22;10909;53.590;10.054;2022-12-18T00:08:34;-0.60;70.30
21495;DHT22;10909;53.590;10.054;2022-12-18T00:11:08;-0.60;70.40
21495;DHT22;10909;53.590;10.054;2022-12-18T00:13:34;-0.60;70.50
21495;DHT22;10909;53.590;10.054;2022-12-18T00:16:11;-0.60;70.50
21495;DHT22;10909;53.590;10.054;2022-12-18T00:18:37;-0.60;70.50
21495;DHT22;10909;53.590;10.054;2022-12-18T00:21:05;-0.60;70.70
21495;DHT22;10909;53.590;10.054;2022-12-18T00:23:32;-0.70;70.50
21495;DHT22;10909;53.590;10.054;2022-12-18T00:26:11;-0.60;70.70
21495;DHT22;10909;53.590;10.054;2022-12-18T00:28:40;-0.60;70.60
21495;DHT22;10909;53.590;10.054;2022-12-18T00:31:25;-0.60;70.50
21495;DHT22;10909;53.590;10.054;2022-12-18T00:33:51;-0.70;70.50
21495;DHT22;10909;53.590;10.054;2022-12-18T00:36:20;-0.70;70.50
21495;DHT22;10909;53.590;10.054;2022-12-18T00:38:47;-0.70;70.50
21495;DHT22;10909;53.590;10.054;2022-12-18T00:41:15;-0.70;70.50
21495;DHT22;10909;53.590;10.054;2022-12-18T00:44:05;-0.70;70.50
21495;DHT22;10909;53.590;10.054;2022-12-18T00:46:31;-0.80;70.40
21495;DHT22;10909;53.590;10.054;2022-12-18T00:48:57;-0.80;70.50
21495;DHT22;10909;53.590;10.054;2022-12-18T00:51:24;-0.80;70.50
21495;DHT22;10909;53.590;10.054;2022-12-18T00:53:50;-0.70;70.50
21495;DHT22;10909;53.590;10.054;2022-12-18T00:56:16;-0.80;70.40
21495;DHT22;10909;53.590;10.054;2022-12-18T00:58:41;-0.70;70.50
21495;DHT22;10909;53.590;10.054;2022-12-18T01:01:07;-0.80;70.40
21495;DHT22;10909;53.590;10.054;2022-12-18T01:03:34;-0.90;70.40
21495;DHT22;10909;53.590;10.054;2022-12-18T01:06:04;-0.90;70.40
21495;DHT22;10909;53.590;10.054;2022-12-18T01:08:30;-0.90;70.30
21495;DHT22;10909;53.590;10.054;2022-12-18T01:10:55;-0.90;70.30
21495;DHT22;10909;53.590;10.054;2022-12-18T01:13:21;-0.90;70.40
21495;DHT22;10909;53.590;10.054;2022-12-18T01:15:50;-0.90;70.50
21495;DHT22;10909;53.590;10.054;2022-12-18T01:18:16;-0.90;70.50
21495;DHT22;10909;53.590;10.054;2022-12-18T01:20:42;-1.00;70.40
21495;DHT22;10909;53.590;10.054;2022-12-18T01:23:07;-1.00;70.40
21495;DHT22;10909;53.590;10.054;2022-12-18T01:25:35;-1.00;70.40
21495;DHT22;10909;53.590;10.054;2022-12-18T01:28:01;-1.00;70.40
21495;DHT22;10909;53.590;10.054;2022-12-18T01:30:27;-1.00;70.40
21495;DHT22;10909;53.590;10.054;2022-12-18T01:32:54;-1.00;70.40
21495;DHT22;10909;53.590;10.054;2022-12-18T01:35:20;-1.00;70.50
21495;DHT22;10909;53.590;10.054;2022-12-18T01:37:46;-1.00;70.40
21495;DHT22;10909;53.590;10.054;2022-12-18T01:40:12;-1.00;70.40
21495;DHT22;10909;53.590;10.054;2022-12-18T01:42:37;-1.10;70.30
21495;DHT22;10909;53.590;10.054;2022-12-18T01:47:47;-1.10;70.30
21495;DHT22;10909;53.590;10.054;2022-12-18T01:50:28;-1.10;70.30
21495;DHT22;10909;53.590;10.054;2022-12-18T01:53:03;-1.10;70.30
21495;DHT22;10909;53.590;10.054;2022-12-18T01:55:31;-1.10;70.40
21495;DHT22;10909;53.590;10.054;2022-12-18T01:57:59;-1.10;70.40
21495;DHT22;10909;53.590;10.054;2022-12-18T02:00:25;-1.10;70.40
21495;DHT22;10909;53.590;10.054;2022-12-18T02:02:52;-1.20;70.40
21495;DHT22;10909;53.590;10.054;2022-12-18T02:05:40;-1.20;70.40
21495;DHT22;10909;53.590;10.054;2022-12-18T02:11:00;-1.20;70.30
21495;DHT22;10909;53.590;10.054;2022-12-18T02:14:08;-1.20;70.40
21495;DHT22;10909;53.590;10.054;2022-12-18T02:19:09;-1.30;70.40
21495;DHT22;10909;53.590;10.054;2022-12-18T02:21:55;-1.30;70.50
21495;DHT22;10909;53.590;10.054;2022-12-18T02:24:39;-1.30;70.50
21495;DHT22;10909;53.590;10.054;2022-12-18T02:27:10;-1.30;70.50
21495;DHT22;10909;53.590;10.054;2022-12-18T02:29:40;-1.30;70.50
21495;DHT22;10909;53.590;10.054;2022-12-18T02:32:11;-1.30;70.50
21495;DHT22;10909;53.590;10.054;2022-12-18T02:34:40;-1.30;70.60
21495;DHT22;10909;53.590;10.054;2022-12-18T02:37:10;-1.30;70.50
21495;DHT22;10909;53.590;10.054;2022-12-18T02:39:41;-1.30;70.60
21495;DHT22;10909;53.590;10.054;2022-12-18T02:42:07;-1.30;70.60
21495;DHT22;10909;53.590;10.054;2022-12-18T02:44:50;-1.30;70.60
21495;DHT22;10909;53.590;10.054;2022-12-18T02:47:22;-1.30;70.50
21495;DHT22;10909;53.590;10.054;2022-12-18T02:58:15;-1.30;70.40
21495;DHT22;10909;53.590;10.054;2022-12-18T03:00:51;-1.30;70.50
21495;DHT22;10909;53.590;10.054;2022-12-18T03:03:27;-1.40;70.30
21495;DHT22;10909;53.590;10.054;2022-12-18T03:06:18;-1.40;70.20
21495;DHT22;10909;53.590;10.054;2022-12-18T03:08:49;-1.40;70.30
21495;DHT22;10909;53.590;10.054;2022-12-18T03:11:16;-1.40;70.30
21495;DHT22;10909;53.590;10.054;2022-12-18T03:14:04;-1.40;70.20
21495;DHT22;10909;53.590;10.054;2022-12-18T03:16:32;-1.40;70.20
21495;DHT22;10909;53.590;10.054;2022-12-18T03:19:03;-1.50;70.10
21495;DHT22;10909;53.590;10.054;2022-12-18T03:21:38;-1.50;70.10
21495;DHT22;10909;53.590;10.054;2022-12-18T03:24:07;-1.50;70.20
21495;DHT22;10909;53.590;10.054;2022-12-18T03:26:35;-1.40;70.30
21495;DHT22;10909;53.590;10.054;2022-12-18T03:29:10;-1.50;70.30
21495;DHT22;10909;53.590;10.054;2022-12-18T03:31:40;-1.50;70.30
21495;DHT22;10909;53.590;10.054;2022-12-18T03:34:12;-1.50;70.40
21495;DHT22;10909;53.590;10.054;2022-12-18T03:36:40;-1.60;70.40
21495;DHT22;10909;53.590;10.054;2022-12-18T03:39:05;-1.50;70.50
21495;DHT22;10909;53.590;10.054;2022-12-18T03:41:44;-1.60;70.40
21495;DHT22;10909;53.590;10.054;2022-12-18T03:44:32;-1.60;70.40
21495;DHT22;10909;53.590;10.054;2022-12-18T03:52:38;-1.60;70.30
21495;DHT22;10909;53.590;10.054;2022-12-18T03:55:07;-1.60;70.30
21495;DHT22;10909;53.590;10.054;2022-12-18T03:57:34;-1.60;70.30
21495;DHT22;10909;53.590;10.054;2022-12-18T04:00:13;-1.60;70.30
21495;DHT22;10909;53.590;10.054;2022-12-18T04:02:44;-1.60;70.40
21495;DHT22;10909;53.590;10.054;2022-12-18T04:05:10;-1.60;70.40
21495;DHT22;10909;53.590;10.054;2022-12-18T04:07:38;-1.60;70.30
21495;DHT22;10909;53.590;10.054;2022-12-18T04:10:12;-1.70;70.30
21495;DHT22;10909;53.590;10.054;2022-12-18T04:12:39;-1.70;70.30
21495;DHT22;10909;53.590;10.054;2022-12-18T04:15:05;-1.70;70.30
21495;DHT22;10909;53.590;10.054;2022-12-18T04:17:32;-1.70;70.30
21495;DHT22;10909;53.590;10.054;2022-12-18T04:19:57;-1.70;70.30
21495;DHT22;10909;53.590;10.054;2022-12-18T04:22:23;-1.70;70.30
21495;DHT22;10909;53.590;10.054;2022-12-18T04:24:49;-1.70;70.30
21495;DHT22;10909;53.590;10.054;2022-12-18T04:27:14;-1.80;70.20
21495;DHT22;10909;53.590;10.054;2022-12-18T04:29:40;-1.80;70.20
21495;DHT22;10909;53.590;10.054;2022-12-18T04:32:07;-1.80;70.10
21495;DHT22;10909;53.590;10.054;2022-12-18T04:34:32;-1.80;70.20
21495;DHT22;10909;53.590;10.054;2022-12-18T04:36:58;-1.90;70.20
21495;DHT22;10909;53.590;10.054;2022-12-18T04:39:26;-1.90;70.20
21495;DHT22;10909;53.590;10.054;2022-12-18T04:41:52;-1.90;70.20
21495;DHT22;10909;53.590;10.054;2022-12-18T04:44:18;-1.80;70.40
21495;DHT22;10909;53.590;10.054;2022-12-18T04:46:43;-1.90;70.40
21495;DHT22;10909;53.590;10.054;2022-12-18T04:49:09;-1.90;70.40
21495;DHT22;10909;53.590;10.054;2022-12-18T04:51:36;-1.90;71.10
21495;DHT22;10909;53.590;10.054;2022-12-18T04:54:02;-1.90;70.40
21495;DHT22;10909;53.590;10.054;2022-12-18T04:56:29;-1.90;70.40
21495;DHT22;10909;53.590;10.054;2022-12-18T04:58:55;-1.90;70.40
21495;DHT22;10909;53.590;10.054;2022-12-18T05:01:21;-1.90;70.50
21495;DHT22;10909;53.590;10.054;2022-12-18T05:03:47;-1.90;70.50
21495;DHT22;10909;53.590;10.054;2022-12-18T05:06:13;-1.90;70.40
21495;DHT22;10909;53.590;10.054;2022-12-18T05:08:38;-2.00;70.40
21495;DHT22;10909;53.590;10.054;2022-12-18T05:11:07;-1.90;70.50
21495;DHT22;10909;53.590;10.054;2022-12-18T05:13:34;-2.00;70.40
21495;DHT22;10909;53.590;10.054;2022-12-18T05:16:00;-1.90;70.40
21495;DHT22;10909;53.590;10.054;2022-12-18T05:18:27;-2.00;70.40
21495;DHT22;10909;53.590;10.054;2022-12-18T05:20:53;-2.00;70.40
21495;DHT22;10909;53.590;10.054;2022-12-18T05:23:20;-2.00;70.40
21495;DHT22;10909;53.590;10.054;2022-12-18T05:25:53;-2.00;70.50
21495;DHT22;10909;53.590;10.054;2022-12-18T05:28:20;-2.00;70.50
21495;DHT22;10909;53.590;10.054;2022-12-18T05:30:55;-2.00;70.50
21495;DHT22;10909;53.590;10.054;2022-12-18T05:33:22;-2.00;70.50
21495;DHT22;10909;53.590;10.054;2022-12-18T05:38:18;-2.00;70.50
21495;DHT22;10909;53.590;10.054;2022-12-18T05:40:44;-2.00;70.50
21495;DHT22;10909;53.590;10.054;2022-12-18T05:43:10;-2.00;70.40
21495;DHT22;10909;53.590;10.054;2022-12-18T05:45:39;-2.00;70.40
21495;DHT22;10909;53.590;10.054;2022-12-18T05:48:06;-2.00;70.40
21495;DHT22;10909;53.590;10.054;2022-12-18T05:50:35;-2.00;70.40
21495;DHT22;10909;53.590;10.054;2022-12-18T05:53:02;-2.00;70.40
21495;DHT22;10909;53.590;10.054;2022-12-18T05:55:28;-2.00;70.40
21495;DHT22;10909;53.590;10.054;2022-12-18T05:57:53;-2.00;70.40
21495;DHT22;10909;53.590;10.054;2022-12-18T06:00:19;-2.00;70.40
21495;DHT22;10909;53.590;10.054;2022-12-18T06:02:48;-2.00;70.40
21495;DHT22;10909;53.590;10.054;2022-12-18T06:05:14;-2.10;70.40
21495;DHT22;10909;53.590;10.054;2022-12-18T06:07:40;-2.10;70.40
21495;DHT22;10909;53.590;10.054;2022-12-18T06:10:06;-2.00;70.50
21495;DHT22;10909;53.590;10.054;2022-12-18T06:12:32;-2.10;70.40
21495;DHT22;10909;53.590;10.054;2022-12-18T06:14:59;-2.10;70.40
21495;DHT22;10909;53.590;10.054;2022-12-18T06:17:29;-2.10;70.40
21495;DHT22;10909;53.590;10.054;2022-12-18T06:19:55;-2.20;70.30
21495;DHT22;10909;53.590;10.054;2022-12-18T06:22:21;-2.10;70.30
21495;DHT22;10909;53.590;10.054;2022-12-18T06:24:47;-2.30;70.20
21495;DHT22;10909;53.590;10.054;2022-12-18T06:27:13;-2.20;70.30
21495;DHT22;10909;53.590;10.054;2022-12-18T06:29:38;-2.20;70.30
21495;DHT22;10909;53.590;10.054;2022-12-18T06:32:04;-2.20;70.30
21495;DHT22;10909;53.590;10.054;2022-12-18T06:34:31;-2.20;70.30
21495;DHT22;10909;53.590;10.054;2022-12-18T06:36:57;-2.20;70.40
21495;DHT22;10909;53.590;10.054;2022-12-18T06:39:23;-2.20;70.40
21495;DHT22;10909;53.590;10.054;2022-12-18T06:41:49;-2.30;70.20
21495;DHT22;10909;53.590;10.054;2022-12-18T06:44:15;-2.30;70.20
21495;DHT22;10909;53.590;10.054;2022-12-18T06:46:40;-2.30;70.40
21495;DHT22;10909;53.590;10.054;2022-12-18T06:49:06;-2.40;70.40
21495;DHT22;10909;53.590;10.054;2022-12-18T06:51:32;-2.30;70.60
21495;DHT22;10909;53.590;10.054;2022-12-18T06:53:58;-2.40;71.40
21495;DHT22;10909;53.590;10.054;2022-12-18T06:56:23;-2.40;70.60
21495;DHT22;10909;53.590;10.054;2022-12-18T06:58:50;-2.30;70.70
21495;DHT22;10909;53.590;10.054;2022-12-18T07:01:16;-2.40;70.60
21495;DHT22;10909;53.590;10.054;2022-12-18T07:03:42;-2.40;70.60
21495;DHT22;10909;53.590;10.054;2022-12-18T07:06:34;-2.40;70.60
21495;DHT22;10909;53.590;10.054;2022-12-18T07:08:59;-2.40;70.70
21495;DHT22;10909;53.590;10.054;2022-12-18T07:11:25;-2.40;70.60
21495;DHT22;10909;53.590;10.054;2022-12-18T07:13:52;-2.40;70.50
21495;DHT22;10909;53.590;10.054;2022-12-18T07:16:20;-2.40;70.50
21495;DHT22;10909;53.590;10.054;2022-12-18T07:18:46;-2.40;70.50
21495;DHT22;10909;53.590;10.054;2022-12-18T07:21:14;-2.40;70.60
21495;DHT22;10909;53.590;10.054;2022-12-18T07:23:40;-2.40;71.40
21495;DHT22;10909;53.590;10.054;2022-12-18T07:26:08;-2.40;70.70
21495;DHT22;10909;53.590;10.054;2022-12-18T07:28:36;-2.40;70.70
21495;DHT22;10909;53.590;10.054;2022-12-18T07:31:12;-2.40;70.70
21495;DHT22;10909;53.590;10.054;2022-12-18T07:33:38;-2.40;70.60
21495;DHT22;10909;53.590;10.054;2022-12-18T07:36:05;-2.40;70.70
21495;DHT22;10909;53.590;10.054;2022-12-18T07:38:32;-2.40;70.70
21495;DHT22;10909;53.590;10.054;2022-12-18T07:41:12;-2.40;70.70
21495;DHT22;10909;53.590;10.054;2022-12-18T07:43:39;-2.40;70.60
21495;DHT22;10909;53.590;10.054;2022-12-18T07:46:05;-2.40;70.60
21495;DHT22;10909;53.590;10.054;2022-12-18T07:48:31;-2.40;70.60
21495;DHT22;10909;53.590;10.054;2022-12-18T07:51:02;-2.40;71.40
21495;DHT22;10909;53.590;10.054;2022-12-18T07:53:30;-2.40;70.70
21495;DHT22;10909;53.590;10.054;2022-12-18T07:55:56;-2.40;70.80
21495;DHT22;10909;53.590;10.054;2022-12-18T07:58:22;-2.40;70.80
21495;DHT22;10909;53.590;10.054;2022-12-18T08:00:48;-2.40;70.70
21495;DHT22;10909;53.590;10.054;2022-12-18T08:03:13;-2.30;71.50
21495;DHT22;10909;53.590;10.054;2022-12-18T08:05:39;-2.30;70.60
21495;DHT22;10909;53.590;10.054;2022-12-18T08:08:05;-2.30;70.60
21495;DHT22;10909;53.590;10.054;2022-12-18T08:10:31;-2.30;70.60
21495;DHT22;10909;53.590;10.054;2022-12-18T08:12:56;-2.40;70.60
21495;DHT22;10909;53.590;10.054;2022-12-18T08:15:22;-2.40;70.60
21495;DHT22;10909;53.590;10.054;2022-12-18T08:17:48;-2.40;70.60
21495;DHT22;10909;53.590;10.054;2022-12-18T08:20:13;-2.40;70.60
21495;DHT22;10909;53.590;10.054;2022-12-18T08:22:41;-2.40;70.60
21495;DHT22;10909;53.590;10.054;2022-12-18T08:25:07;-2.30;70.70
21495;DHT22;10909;53.590;10.054;2022-12-18T08:27:33;-2.30;70.70
21495;DHT22;10909;53.590;10.054;2022-12-18T08:29:59;-2.40;70.70
21495;DHT22;10909;53.590;10.054;2022-12-18T08:32:26;-2.30;70.80
21495;DHT22;10909;53.590;10.054;2022-12-18T08:34:52;-2.20;70.90
21495;DHT22;10909;53.590;10.054;2022-12-18T08:37:17;-2.20;70.90
21495;DHT22;10909;53.590;10.054;2022-12-18T08:39:43;-2.30;70.80
21495;DHT22;10909;53.590;10.054;2022-12-18T08:42:09;-2.20;71.00
21495;DHT22;10909;53.590;10.054;2022-12-18T08:44:53;-2.20;71.00
21495;DHT22;10909;53.590;10.054;2022-12-18T08:47:19;-2.20;71.00
21495;DHT22;10909;53.590;10.054;2022-12-18T08:49:45;-2.20;71.00
21495;DHT22;10909;53.590;10.054;2022-12-18T08:52:11;-2.20;70.90
21495;DHT22;10909;53.590;10.054;2022-12-18T08:54:39;-2.20;70.90
21495;DHT22;10909;53.590;10.054;2022-12-18T08:57:05;-2.10;71.00
21495;DHT22;10909;53.590;10.054;2022-12-18T08:59:30;-2.10;71.10
21495;DHT22;10909;53.590;10.054;2022-12-18T09:01:56;-2.00;71.30
21495;DHT22;10909;53.590;10.054;2022-12-18T09:04:22;-2.00;71.30
21495;DHT22;10909;53.590;10.054;2022-12-18T09:06:48;-1.90;71.30
21495;DHT22;10909;53.590;10.054;2022-12-18T09:09:13;-1.90;71.20
21495;DHT22;10909;53.590;10.054;2022-12-18T09:11:39;-1.80;71.10
21495;DHT22;10909;53.590;10.054;2022-12-18T09:14:05;-1.80;71.00
21495;DHT22;10909;53.590;10.054;2022-12-18T09:16:31;-1.80;70.90
21495;DHT22;10909;53.590;10.054;2022-12-18T09:18:58;-1.70;70.90
21495;DHT22;10909;53.590;10.054;2022-12-18T09:21:29;-1.60;70.90
21495;DHT22;10909;53.590;10.054;2022-12-18T09:23:56;-1.60;70.90
21495;DHT22;10909;53.590;10.054;2022-12-18T09:26:23;-1.60;70.90
21495;DHT22;10909;53.590;10.054;2022-12-18T09:28:50;-1.60;70.90
21495;DHT22;10909;53.590;10.054;2022-12-18T09:31:18;-1.60;70.80
21495;DHT22;10909;53.590;10.054;2022-12-18T09:33:44;-1.50;70.80
21495;DHT22;10909;53.590;10.054;2022-12-18T09:36:13;-1.50;70.80
21495;DHT22;10909;53.590;10.054;2022-12-18T09:38:39;-1.40;70.80
21495;DHT22;10909;53.590;10.054;2022-12-18T09:41:24;-1.40;70.70
21495;DHT22;10909;53.590;10.054;2022-12-18T09:43:59;-1.40;71.40
21495;DHT22;10909;53.590;10.054;2022-12-18T09:46:30;-1.30;70.70
21495;DHT22;10909;53.590;10.054;2022-12-18T09:49:03;-1.30;70.80
21495;DHT22;10909;53.590;10.054;2022-12-18T09:51:44;-1.20;70.90
21495;DHT22;10909;53.590;10.054;2022-12-18T09:54:22;-1.10;70.90
21495;DHT22;10909;53.590;10.054;2022-12-18T09:56:48;-1.10;70.80
21495;DHT22;10909;53.590;10.054;2022-12-18T10:01:51;-0.90;71.20
21495;DHT22;10909;53.590;10.054;2022-12-18T10:04:17;-0.80;71.10
21495;DHT22;10909;53.590;10.054;2022-12-18T10:09:41;-0.60;71.10
21495;DHT22;10909;53.590;10.054;2022-12-18T10:12:41;-0.50;71.10
21495;DHT22;10909;53.590;10.054;2022-12-18T10:15:24;-0.40;70.90
21495;DHT22;10909;53.590;10.054;2022-12-18T10:20:50;-0.30;69.90
21495;DHT22;10909;53.590;10.054;2022-12-18T10:23:33;-0.30;69.60
21495;DHT22;10909;53.590;10.054;2022-12-18T10:26:07;-0.30;69.50
21495;DHT22;10909;53.590;10.054;2022-12-18T10:28:36;-0.30;69.40
21495;DHT22;10909;53.590;10.054;2022-12-18T10:31:18;-0.20;69.70
21495;DHT22;10909;53.590;10.054;2022-12-18T10:33:44;-0.20;69.80
21495;DHT22;10909;53.590;10.054;2022-12-18T10:36:10;-0.20;69.80
21495;DHT22;10909;53.590;10.054;2022-12-18T10:38:36;-0.10;69.80
21495;DHT22;10909;53.590;10.054;2022-12-18T10:41:06;-0.10;69.90
21495;DHT22;10909;53.590;10.054;2022-12-18T10:43:38;-0.10;69.80
21495;DHT22;10909;53.590;10.054;2022-12-18T10:46:14;0.00;69.80
21495;DHT22;10909;53.590;10.054;2022-12-18T10:48:54;0.10;69.80
21495;DHT22;10909;53.590;10.054;2022-12-18T10:51:34;0.10;69.80
21495;DHT22;10909;53.590;10.054;2022-12-18T10:54:07;0.10;69.40
21495;DHT22;10909;53.590;10.054;2022-12-18T10:56:40;0.10;69.10
21495;DHT22;10909;53.590;10.054;2022-12-18T10:59:07;0.20;69.20
21495;DHT22;10909;53.590;10.054;2022-12-18T11:01:53;0.30;69.00
21495;DHT22;10909;53.590;10.054;2022-12-18T11:04:28;0.20;69.10
21495;DHT22;10909;53.590;10.054;2022-12-18T11:07:07;0.30;69.20
21495;DHT22;10909;53.590;10.054;2022-12-18T11:09:39;0.30;69.10
21495;DHT22;10909;53.590;10.054;2022-12-18T11:12:17;0.40;69.10
21495;DHT22;10909;53.590;10.054;2022-12-18T11:14:45;0.40;68.90
21495;DHT22;10909;53.590;10.054;2022-12-18T11:17:29;0.40;69.00
21495;DHT22;10909;53.590;10.054;2022-12-18T11:23:04;0.50;69.40
21495;DHT22;10909;53.590;10.054;2022-12-18T11:25:32;0.70;69.20
21495;DHT22;10909;53.590;10.054;2022-12-18T11:28:42;0.60;69.00
21495;DHT22;10909;53.590;10.054;2022-12-18T11:30:47;0.70;68.90
21495;DHT22;10909;53.590;10.054;2022-12-18T11:33:20;0.80;69.10
21495;DHT22;10909;53.590;10.054;2022-12-18T11:35:55;0.80;68.90
21495;DHT22;10909;53.590;10.054;2022-12-18T11:38:23;0.80;68.70
21495;DHT22;10909;53.590;10.054;2022-12-18T11:40:58;0.90;68.40
21495;DHT22;10909;53.590;10.054;2022-12-18T11:43:52;0.90;68.70
21495;DHT22;10909;53.590;10.054;2022-12-18T11:47:05;0.90;68.60
21495;DHT22;10909;53.590;10.054;2022-12-18T11:49:28;1.00;68.80
21495;DHT22;10909;53.590;10.054;2022-12-18T11:52:08;1.10;68.80
21495;DHT22;10909;53.590;10.054;2022-12-18T11:54:35;1.10;69.00
21495;DHT22;10909;53.590;10.054;2022-12-18T11:57:38;1.20;68.90
21495;DHT22;10909;53.590;10.054;2022-12-18T12:00:13;1.20;68.80
21495;DHT22;10909;53.590;10.054;2022-12-18T12:05:31;1.40;68.30
21495;DHT22;10909;53.590;10.054;2022-12-18T12:08:30;1.40;68.00
21495;DHT22;10909;53.590;10.054;2022-12-18T12:11:16;1.40;67.80
21495;DHT22;10909;53.590;10.054;2022-12-18T12:23:22;1.60;67.90
21495;DHT22;10909;53.590;10.054;2022-12-18T12:25:43;1.60;67.60
21495;DHT22;10909;53.590;10.054;2022-12-18T12:31:11;1.70;67.80
21495;DHT22;10909;53.590;10.054;2022-12-18T12:33:46;1.70;68.00
21495;DHT22;10909;53.590;10.054;2022-12-18T12:38:54;1.70;67.70
21495;DHT22;10909;53.590;10.054;2022-12-18T12:41:26;1.80;67.90
21495;DHT22;10909;53.590;10.054;2022-12-18T12:44:38;1.80;67.80
21495;DHT22;10909;53.590;10.054;2022-12-18T12:47:21;1.90;67.50
21495;DHT22;10909;53.590;10.054;2022-12-18T12:49:49;1.80;67.40
21495;DHT22;10909;53.590;10.054;2022-12-18T12:52:33;1.90;67.60
21495;DHT22;10909;53.590;10.054;2022-12-18T12:55:02;1.90;67.50
21495;DHT22;10909;53.590;10.054;2022-12-18T12:57:41;2.00;67.50
21495;DHT22;10909;53.590;10.054;2022-12-18T13:00:17;2.00;67.50
21495;DHT22;10909;53.590;10.054;2022-12-18T13:05:30;2.10;67.30
21495;DHT22;10909;53.590;10.054;2022-12-18T13:10:25;2.20;67.40
21495;DHT22;10909;53.590;10.054;2022-12-18T13:12:57;2.20;66.90
21495;DHT22;10909;53.590;10.054;2022-12-18T13:25:56;2.50;67.50
21495;DHT22;10909;53.590;10.054;2022-12-18T13:36:41;2.70;65.80
21495;DHT22;10909;53.590;10.054;2022-12-18T13:41:40;2.60;65.20
21495;DHT22;10909;53.590;10.054;2022-12-18T13:44:17;2.60;65.40
21495;DHT22;10909;53.590;10.054;2022-12-18T13:46:49;2.50;65.30
21495;DHT22;10909;53.590;10.054;2022-12-18T13:49:39;2.50;65.40
21495;DHT22;10909;53.590;10.054;2022-12-18T13:52:33;2.40;65.20
21495;DHT22;10909;53.590;10.054;2022-12-18T13:55:02;2.40;64.80
21495;DHT22;10909;53.590;10.054;2022-12-18T13:57:38;2.30;65.00
21495;DHT22;10909;53.590;10.054;2022-12-18T14:02:45;2.30;65.30
21495;DHT22;10909;53.590;10.054;2022-12-18T14:05:30;2.20;65.10
21495;DHT22;10909;53.590;10.054;2022-12-18T14:08:05;2.20;65.20
21495;DHT22;10909;53.590;10.054;2022-12-18T14:10:31;2.10;65.10
21495;DHT22;10909;53.590;10.054;2022-12-18T14:13:03;2.00;65.10
21495;DHT22;10909;53.590;10.054;2022-12-18T14:15:41;2.00;65.30
21495;DHT22;10909;53.590;10.054;2022-12-18T14:21:20;1.90;65.30
21495;DHT22;10909;53.590;10.054;2022-12-18T14:23:46;1.90;65.20
21495;DHT22;10909;53.590;10.054;2022-12-18T14:28:48;1.80;65.10
21495;DHT22;10909;53.590;10.054;2022-12-18T14:31:24;1.70;65.80
21495;DHT22;10909;53.590;10.054;2022-12-18T14:33:50;1.70;65.20
21495;DHT22;10909;53.590;10.054;2022-12-18T14:36:25;1.70;65.20
21495;DHT22;10909;53.590;10.054;2022-12-18T14:38:54;1.50;65.30
21495;DHT22;10909;53.590;10.054;2022-12-18T14:41:21;1.60;65.40
21495;DHT22;10909;53.590;10.054;2022-12-18T14:43:52;1.50;65.50
21495;DHT22;10909;53.590;10.054;2022-12-18T14:48:56;1.40;65.60
21495;DHT22;10909;53.590;10.054;2022-12-18T14:51:24;1.30;65.60
21495;DHT22;10909;53.590;10.054;2022-12-18T15:01:36;1.20;66.10
21495;DHT22;10909;53.590;10.054;2022-12-18T15:04:04;1.20;66.20
21495;DHT22;10909;53.590;10.054;2022-12-18T15:06:34;1.10;66.00
21495;DHT22;10909;53.590;10.054;2022-12-18T15:09:25;1.10;66.00
21495;DHT22;10909;53.590;10.054;2022-12-18T15:11:55;1.10;66.20
21495;DHT22;10909;53.590;10.054;2022-12-18T15:14:42;1.10;66.20
21495;DHT22;10909;53.590;10.054;2022-12-18T15:17:34;1.10;66.20
21495;DHT22;10909;53.590;10.054;2022-12-18T15:20:03;1.20;66.30
21495;DHT22;10909;53.590;10.054;2022-12-18T15:22:35;1.00;66.20
21495;DHT22;10909;53.590;10.054;2022-12-18T15:25:03;1.00;66.30
21495;DHT22;10909;53.590;10.054;2022-12-18T15:27:47;1.00;66.50
21495;DHT22;10909;53.590;10.054;2022-12-18T15:30:17;1.00;66.60
21495;DHT22;10909;53.590;10.054;2022-12-18T15:32:44;1.00;66.60
21495;DHT22;10909;53.590;10.054;2022-12-18T15:37:41;0.90;66.70
21495;DHT22;10909;53.590;10.054;2022-12-18T15:40:11;0.90;66.70
21495;DHT22;10909;53.590;10.054;2022-12-18T15:42:37;0.90;67.60
21495;DHT22;10909;53.590;10.054;2022-12-18T15:45:21;0.90;67.00
21495;DHT22;10909;53.590;10.054;2022-12-18T15:47:47;0.90;67.00
21495;DHT22;10909;53.590;10.054;2022-12-18T15:50:12;0.90;67.00
21495;DHT22;10909;53.590;10.054;2022-12-18T15:52:43;0.90;67.00
21495;DHT22;10909;53.590;10.054;2022-12-18T15:55:15;0.90;67.20
21495;DHT22;10909;53.590;10.054;2022-12-18T15:58:00;0.90;67.20
21495;DHT22;10909;53.590;10.054;2022-12-18T16:00:28;0.90;67.30
21495;DHT22;10909;53.590;10.054;2022-12-18T16:02:58;0.90;67.30
21495;DHT22;10909;53.590;10.054;2022-12-18T16:05:26;0.90;67.30
21495;DHT22;10909;53.590;10.054;2022-12-18T16:07:52;1.00;67.30
21495;DHT22;10909;53.590;10.054;2022-12-18T16:10:19;0.90;67.30
21495;DHT22;10909;53.590;10.054;2022-12-18T16:12:45;1.00;67.50
21495;DHT22;10909;53.590;10.054;2022-12-18T16:15:15;0.90;67.50
21495;DHT22;10909;53.590;10.054;2022-12-18T16:17:42;0.90;67.50
21495;DHT22;10909;53.590;10.054;2022-12-18T16:20:21;1.00;67.50
21495;DHT22;10909;53.590;10.054;2022-12-18T16:22:50;1.00;67.50
21495;DHT22;10909;53.590;10.054;2022-12-18T16:25:20;1.00;67.50
21495;DHT22;10909;53.590;10.054;2022-12-18T16:27:46;1.00;67.50
21495;DHT22;10909;53.590;10.054;2022-12-18T16:30:18;0.90;67.50
21495;DHT22;10909;53.590;10.054;2022-12-18T16:32:44;0.90;67.40
21495;DHT22;10909;53.590;10.054;2022-12-18T16:35:14;0.90;67.30
21495;DHT22;10909;53.590;10.054;2022-12-18T16:37:40;0.90;67.30
21495;DHT22;10909;53.590;10.054;2022-12-18T16:40:08;0.90;67.40
21495;DHT22;10909;53.590;10.054;2022-12-18T16:42:39;0.90;67.40
21495;DHT22;10909;53.590;10.054;2022-12-18T16:45:07;1.00;67.60
21495;DHT22;10909;53.590;10.054;2022-12-18T16:47:34;0.80;67.50
21495;DHT22;10909;53.590;10.054;2022-12-18T16:50:00;0.80;67.50
21495;DHT22;10909;53.590;10.054;2022-12-18T16:52:26;0.80;67.40
21495;DHT22;10909;53.590;10.054;2022-12-18T16:54:51;0.80;67.60
21495;DHT22;10909;53.590;10.054;2022-12-18T16:57:19;0.80;67.60
21495;DHT22;10909;53.590;10.054;2022-12-18T16:59:45;0.80;67.70
21495;DHT22;10909;53.590;10.054;2022-12-18T17:02:17;0.80;67.70
21495;DHT22;10909;53.590;10.054;2022-12-18T17:04:43;0.80;67.80
21495;DHT22;10909;53.590;10.054;2022-12-18T17:07:10;0.70;67.80
21495;DHT22;10909;53.590;10.054;2022-12-18T17:09:36;0.70;67.70
21495;DHT22;10909;53.590;10.054;2022-12-18T17:12:03;0.70;67.90
21495;DHT22;10909;53.590;10.054;2022-12-18T17:14:29;0.80;68.00
21495;DHT22;10909;53.590;10.054;2022-12-18T17:16:55;0.70;68.00
21495;DHT22;10909;53.590;10.054;2022-12-18T17:19:25;0.70;68.00
21495;DHT22;10909;53.590;10.054;2022-12-18T17:21:52;0.80;68.10
21495;DHT22;10909;53.590;10.054;2022-12-18T17:24:18;0.80;68.10